createdAt,value
2023-05-04T00:04:16.834Z,84.47
2023-05-04T00:09:19.964Z,84.55
2023-05-04T00:14:22.856Z,85.07
2023-05-04T00:19:26.270Z,85.52
2023-05-04T00:24:29.579Z,86.50
2023-05-04T00:29:32.485Z,87.14
2023-05-04T00:34:35.487Z,87.32
2023-05-04T00:39:38.386Z,87.99
2023-05-04T00:44:41.699Z,89.35
2023-05-04T00:49:45.016Z,91.48
2023-05-04T00:54:48.024Z,93.62
2023-05-04T00:59:51.135Z,95.26
2023-05-04T01:04:54.219Z,95.53
2023-05-04T01:10:18.125Z,94.94
2023-05-04T01:15:21.430Z,94.19
2023-05-04T01:20:24.657Z,93.56
2023-05-04T01:25:31.019Z,93.15
2023-05-04T01:30:39.676Z,92.98
2023-05-04T01:35:42.964Z,92.60
2023-05-04T01:40:46.074Z,92.62
2023-05-04T01:45:49.224Z,92.95
2023-05-04T01:50:52.341Z,93.18
2023-05-04T01:55:55.380Z,93.74
2023-05-04T02:00:59.721Z,93.97
2023-05-04T02:06:02.724Z,94.38
2023-05-04T02:11:05.820Z,94.31
2023-05-04T02:16:09.088Z,94.12
2023-05-04T02:21:13.073Z,94.06
2023-05-04T02:26:16.379Z,94.11
2023-05-04T02:31:19.298Z,94.20
2023-05-04T02:36:22.273Z,94.38
2023-05-04T02:41:25.395Z,94.42
2023-05-04T02:46:28.481Z,94.57
2023-05-04T02:51:31.487Z,94.34
2023-05-04T02:56:34.500Z,94.48
2023-05-04T03:01:37.756Z,95.04
2023-05-04T03:06:40.809Z,95.09
2023-05-04T03:11:44.016Z,94.82
2023-05-04T03:16:47.544Z,94.67
2023-05-04T03:21:50.843Z,94.68
2023-05-04T03:26:53.841Z,94.69
2023-05-04T03:31:56.973Z,94.90
2023-05-04T03:36:59.953Z,94.77
2023-05-04T03:42:03.064Z,94.87
2023-05-04T03:47:06.067Z,94.50
2023-05-04T03:52:09.172Z,94.16
2023-05-04T03:57:12.285Z,94.32
2023-05-04T04:02:15.424Z,94.33
2023-05-04T04:07:18.684Z,93.56
2023-05-04T04:12:21.794Z,93.26
2023-05-04T04:17:24.925Z,93.23
2023-05-04T04:22:28.207Z,91.72
2023-05-04T04:27:31.315Z,90.38
2023-05-04T04:32:35.270Z,89.32
2023-05-04T04:37:38.239Z,88.54
2023-05-04T04:42:42.269Z,86.86
2023-05-04T04:47:46.028Z,83.58
2023-05-04T04:52:49.396Z,82.76
2023-05-04T04:57:53.224Z,84.49
2023-05-04T05:02:56.784Z,76.07
2023-05-04T05:07:59.947Z,70.38
2023-05-04T05:13:03.091Z,67.84
2023-05-04T05:18:06.224Z,60.80
2023-05-04T05:23:09.283Z,53.98
2023-05-04T05:28:13.703Z,54.67
2023-05-04T05:33:17.307Z,56.06
2023-05-04T05:38:20.631Z,52.68
2023-05-04T05:43:23.629Z,49.94
2023-05-04T05:48:26.743Z,47.84
2023-05-04T05:53:30.050Z,43.93
2023-05-04T05:58:33.163Z,43.04
2023-05-04T06:03:36.411Z,39.38
2023-05-04T06:08:39.609Z,36.40
2023-05-04T06:13:42.716Z,35.45
2023-05-04T06:18:45.675Z,36.02
2023-05-04T06:23:48.776Z,35.47
2023-05-04T06:28:51.787Z,35.30
2023-05-04T06:33:54.791Z,35.86
2023-05-04T06:38:58.608Z,34.39
2023-05-04T06:44:02.531Z,32.74
2023-05-04T06:49:05.848Z,31.79
2023-05-04T06:54:09.673Z,28.98
2023-05-04T06:59:13.424Z,28.25
2023-05-04T07:04:17.111Z,27.00
2023-05-04T07:09:20.319Z,26.80
2023-05-04T07:14:23.833Z,25.44
2023-05-04T07:19:28.097Z,25.97
2023-05-04T07:24:31.597Z,24.54
2023-05-04T07:29:35.390Z,22.83
2023-05-04T07:34:45.630Z,21.66
2023-05-04T07:39:49.708Z,21.53
2023-05-04T07:44:52.903Z,20.25
2023-05-04T07:49:56.224Z,20.41
2023-05-04T07:54:59.118Z,20.62
2023-05-04T08:00:03.048Z,21.64
2023-05-04T08:05:07.467Z,21.28
2023-05-04T08:10:10.697Z,20.02
2023-05-04T08:15:15.012Z,18.92
2023-05-04T08:20:18.021Z,19.13
2023-05-04T08:25:22.570Z,19.16
2023-05-04T08:30:25.979Z,19.50
2023-05-04T09:41:17.754Z,28.73
2023-05-04T09:46:22.130Z,26.86
2023-05-04T09:51:26.736Z,26.13
2023-05-04T09:56:29.943Z,27.12
2023-05-04T10:01:33.291Z,26.83
2023-05-04T10:06:36.347Z,26.55
2023-05-04T10:11:39.870Z,28.26
2023-05-04T10:16:42.761Z,29.29
2023-05-04T10:21:52.932Z,30.43
2023-05-04T10:27:08.222Z,30.79
2023-05-04T10:32:21.855Z,31.69
2023-05-04T10:37:25.188Z,31.64
2023-05-04T10:42:29.128Z,32.78
2023-05-04T10:47:33.438Z,33.15
2023-05-04T10:52:49.759Z,32.24
2023-05-04T10:57:58.804Z,32.44
2023-05-04T11:03:06.133Z,33.56
2023-05-04T11:08:16.182Z,33.53
2023-05-04T11:13:19.924Z,33.58
2023-05-04T11:18:34.408Z,34.64
2023-05-04T11:23:38.601Z,34.56
2023-05-04T11:28:41.720Z,34.22
2023-05-04T11:33:55.127Z,33.16
2023-05-04T11:38:58.781Z,33.09
2023-05-04T11:44:04.052Z,32.88
2023-05-04T11:49:07.147Z,31.60
2023-05-04T11:54:19.462Z,32.01
2023-05-04T11:59:22.667Z,32.82
2023-05-04T12:04:31.022Z,32.99
2023-05-04T12:09:44.035Z,32.79
2023-05-04T12:14:50.532Z,32.89
2023-05-04T12:19:57.311Z,32.07
2023-05-04T12:25:00.638Z,32.63
2023-05-04T12:30:04.787Z,33.62
2023-05-04T12:35:08.570Z,34.30
2023-05-04T12:40:25.134Z,33.80
2023-05-04T12:45:32.157Z,33.62
2023-05-04T12:50:35.092Z,33.24
2023-05-04T12:55:38.298Z,32.55
2023-05-04T13:00:42.283Z,32.71
2023-05-04T13:05:47.660Z,32.74
2023-05-04T13:10:51.306Z,33.64
2023-05-04T13:15:54.703Z,33.85
2023-05-04T13:20:57.851Z,33.55
2023-05-04T13:26:00.932Z,33.31
2023-05-04T13:31:05.935Z,33.59
2023-05-04T13:36:09.191Z,35.00
2023-05-04T13:41:12.295Z,35.49
2023-05-04T13:46:15.716Z,36.00
2023-05-04T13:51:18.812Z,36.13
2023-05-04T13:56:21.818Z,36.26
2023-05-04T14:01:25.313Z,36.09
2023-05-04T14:06:29.977Z,36.55
2023-05-04T14:11:33.617Z,35.87
2023-05-04T14:16:37.625Z,36.47
2023-05-04T14:21:40.725Z,37.02
2023-05-04T14:26:43.928Z,37.35
2023-05-04T14:31:47.401Z,37.36
2023-05-04T14:36:52.939Z,37.61
2023-05-04T14:41:57.649Z,37.65
2023-05-04T14:47:00.756Z,37.87
2023-05-04T14:52:04.168Z,38.09
2023-05-04T14:57:09.488Z,37.32
2023-05-04T15:02:12.948Z,36.77
2023-05-04T15:07:18.510Z,36.87
2023-05-04T15:12:22.631Z,36.25
2023-05-04T15:17:25.698Z,36.19
2023-05-04T15:22:28.752Z,36.78
2023-05-04T15:27:32.102Z,37.04
2023-05-04T15:32:35.196Z,36.98
2023-05-04T15:37:38.156Z,37.02
2023-05-04T15:42:41.472Z,36.10
2023-05-04T15:47:45.538Z,36.30
2023-05-04T15:52:48.704Z,36.41
2023-05-04T15:57:51.952Z,36.63
2023-05-04T16:02:55.384Z,37.01
2023-05-04T16:07:58.921Z,36.90
2023-05-04T16:13:04.629Z,37.04
2023-05-04T16:18:07.673Z,36.69
2023-05-04T16:23:13.478Z,37.37
2023-05-04T16:28:16.485Z,38.15
2023-05-04T16:33:20.202Z,38.67
2023-05-04T16:38:23.215Z,39.03
2023-05-04T16:43:26.322Z,38.73
2023-05-04T16:48:29.427Z,39.16
2023-05-04T16:53:32.732Z,40.61
2023-05-04T16:58:36.462Z,42.54
2023-05-04T17:03:39.743Z,43.79
2023-05-04T17:08:44.500Z,44.84
2023-05-04T17:13:47.510Z,45.57
2023-05-04T17:18:50.509Z,45.95
2023-05-04T17:23:54.345Z,46.42
2023-05-04T17:28:57.451Z,47.23
2023-05-04T17:34:00.446Z,47.87
2023-05-04T17:39:04.369Z,48.34
2023-05-04T17:44:07.475Z,49.13
2023-05-04T17:49:10.565Z,49.54
2023-05-04T17:54:14.087Z,50.21
2023-05-04T17:59:18.139Z,50.70
2023-05-04T18:04:21.328Z,51.19
2023-05-04T18:09:24.431Z,51.53
2023-05-04T18:14:27.947Z,51.73
2023-05-04T18:19:34.550Z,51.66
2023-05-04T18:24:38.254Z,51.91
2023-05-04T18:29:41.325Z,52.11
2023-05-04T18:34:47.944Z,52.40
2023-05-04T18:39:51.567Z,52.51
2023-05-04T18:44:55.189Z,52.57
2023-05-04T18:49:58.510Z,53.09
2023-05-04T18:55:01.602Z,53.58
2023-05-04T19:00:07.508Z,54.23
2023-05-04T19:05:14.326Z,54.41
2023-05-04T19:10:18.103Z,54.66
2023-05-04T19:15:23.268Z,54.83
2023-05-04T19:20:27.377Z,55.15
2023-05-04T19:25:34.817Z,55.53
2023-05-04T19:30:39.109Z,56.25
2023-05-04T19:35:42.765Z,56.96
2023-05-04T19:40:46.452Z,57.70
2023-05-04T19:45:51.826Z,58.32
2023-05-04T19:50:57.779Z,58.79
2023-05-04T19:56:01.825Z,59.56
2023-05-04T20:01:05.354Z,59.99
2023-05-04T20:06:09.840Z,60.16
2023-05-04T20:11:14.814Z,60.86
2023-05-04T20:16:18.512Z,61.09
2023-05-04T20:21:22.254Z,61.37
2023-05-04T20:26:26.080Z,61.78
2023-05-04T20:31:29.615Z,61.98
2023-05-04T20:36:33.608Z,62.14
2023-05-04T20:41:37.953Z,61.88
2023-05-04T20:46:42.082Z,62.01
2023-05-04T20:51:46.462Z,61.92
2023-05-04T20:56:49.536Z,61.84
2023-05-04T21:01:52.966Z,61.86
2023-05-04T21:06:57.266Z,61.27
2023-05-04T21:12:00.388Z,60.31
2023-05-04T21:17:03.376Z,59.44
2023-05-04T21:22:06.373Z,58.80
2023-05-04T21:27:09.585Z,58.17
2023-05-04T21:32:12.589Z,58.20
2023-05-04T21:37:15.796Z,58.11
2023-05-04T21:42:19.229Z,58.39
2023-05-04T21:47:26.032Z,58.65
2023-05-04T21:52:29.619Z,58.87
2023-05-04T21:57:33.647Z,59.09
2023-05-04T22:02:36.685Z,59.45
2023-05-04T22:07:39.966Z,59.83
2023-05-04T22:12:43.087Z,60.17
2023-05-04T22:17:46.198Z,60.81
2023-05-04T22:22:51.342Z,61.47
2023-05-04T22:27:54.738Z,62.44
2023-05-04T22:32:57.996Z,63.10
2023-05-04T22:38:01.052Z,63.80
2023-05-04T22:43:04.164Z,64.27
2023-05-04T22:48:07.496Z,64.85
2023-05-04T22:53:11.108Z,65.62
2023-05-04T22:58:14.200Z,66.78
2023-05-04T23:03:17.979Z,67.24
2023-05-04T23:08:21.119Z,68.28
2023-05-04T23:13:24.739Z,70.16
2023-05-04T23:18:27.640Z,71.65
2023-05-04T23:23:31.255Z,72.36
2023-05-04T23:28:34.365Z,72.52
2023-05-04T23:33:37.773Z,72.32
2023-05-04T23:38:40.676Z,72.60
2023-05-04T23:43:43.683Z,72.84
2023-05-04T23:48:46.581Z,73.05
2023-05-04T23:53:49.588Z,73.15
2023-05-04T23:58:52.789Z,73.91
